sensor_id;sensor_type;location;lat;lon;timestamp;temperature;humidity
14555;DHT22;7364;50.870;4.722;2023-07-20T00:00:20;18.40;99.90
14555;DHT22;7364;50.870;4.722;2023-07-20T00:02:50;18.40;99.90
14555;DHT22;7364;50.870;4.722;2023-07-20T00:05:18;18.40;99.90
14555;DHT22;7364;50.870;4.722;2023-07-20T00:07:47;18.40;99.90
14555;DHT22;7364;50.870;4.722;2023-07-20T00:10:17;18.30;99.90
14555;DHT22;7364;50.870;4.722;2023-07-20T00:12:46;18.20;99.90
14555;DHT22;7364;50.870;4.722;2023-07-20T00:15:13;18.10;99.90
14555;DHT22;7364;50.870;4.722;2023-07-20T00:17:40;18.20;99.90
14555;DHT22;7364;50.870;4.722;2023-07-20T00:20:09;18.20;99.90
14555;DHT22;7364;50.870;4.722;2023-07-20T00:22:36;18.20;99.90
14555;DHT22;7364;50.870;4.722;2023-07-20T00:25:04;18.10;99.90
14555;DHT22;7364;50.870;4.722;2023-07-20T00:27:31;18.10;99.90
14555;DHT22;7364;50.870;4.722;2023-07-20T00:30:00;18.10;99.90
14555;DHT22;7364;50.870;4.722;2023-07-20T00:32:27;18.10;99.90
14555;DHT22;7364;50.870;4.722;2023-07-20T00:34:54;18.00;99.90
14555;DHT22;7364;50.870;4.722;2023-07-20T00:37:22;18.00;99.90
14555;DHT22;7364;50.870;4.722;2023-07-20T00:39:49;18.00;99.90
14555;DHT22;7364;50.870;4.722;2023-07-20T00:42:16;18.00;99.90
14555;DHT22;7364;50.870;4.722;2023-07-20T00:44:43;18.00;99.90
14555;DHT22;7364;50.870;4.722;2023-07-20T00:47:12;18.00;99.90
14555;DHT22;7364;50.870;4.722;2023-07-20T00:49:39;18.00;99.90
14555;DHT22;7364;50.870;4.722;2023-07-20T00:52:08;17.90;99.90
14555;DHT22;7364;50.870;4.722;2023-07-20T00:54:37;18.00;99.90
14555;DHT22;7364;50.870;4.722;2023-07-20T00:57:06;18.10;99.90
14555;DHT22;7364;50.870;4.722;2023-07-20T00:59:34;18.00;99.90
14555;DHT22;7364;50.870;4.722;2023-07-20T01:02:02;18.10;99.90
14555;DHT22;7364;50.870;4.722;2023-07-20T01:04:31;18.10;99.90
14555;DHT22;7364;50.870;4.722;2023-07-20T01:07:06;18.00;99.90
14555;DHT22;7364;50.870;4.722;2023-07-20T01:09:42;18.00;99.90
14555;DHT22;7364;50.870;4.722;2023-07-20T01:12:22;18.00;99.90
14555;DHT22;7364;50.870;4.722;2023-07-20T01:14:50;18.00;99.90
14555;DHT22;7364;50.870;4.722;2023-07-20T01:17:18;18.00;99.90
14555;DHT22;7364;50.870;4.722;2023-07-20T01:19:46;17.90;99.90
14555;DHT22;7364;50.870;4.722;2023-07-20T01:22:28;17.80;99.90
14555;DHT22;7364;50.870;4.722;2023-07-20T01:25:22;17.70;99.90
14555;DHT22;7364;50.870;4.722;2023-07-20T01:28:32;17.70;99.90
14555;DHT22;7364;50.870;4.722;2023-07-20T01:31:17;17.60;99.90
14555;DHT22;7364;50.870;4.722;2023-07-20T01:33:46;17.60;99.90
14555;DHT22;7364;50.870;4.722;2023-07-20T01:36:15;17.60;99.90
14555;DHT22;7364;50.870;4.722;2023-07-20T01:38:43;17.60;99.90
14555;DHT22;7364;50.870;4.722;2023-07-20T01:41:12;17.60;99.90
14555;DHT22;7364;50.870;4.722;2023-07-20T01:43:39;17.50;99.90
14555;DHT22;7364;50.870;4.722;2023-07-20T01:46:07;17.40;99.90
14555;DHT22;7364;50.870;4.722;2023-07-20T01:48:35;17.40;99.90
14555;DHT22;7364;50.870;4.722;2023-07-20T01:51:03;17.40;99.90
14555;DHT22;7364;50.870;4.722;2023-07-20T01:53:30;17.50;99.90
14555;DHT22;7364;50.870;4.722;2023-07-20T01:55:57;17.60;99.90
14555;DHT22;7364;50.870;4.722;2023-07-20T01:58:24;17.60;99.90
14555;DHT22;7364;50.870;4.722;2023-07-20T02:00:52;17.60;99.90
14555;DHT22;7364;50.870;4.722;2023-07-20T02:03:19;17.50;99.90
14555;DHT22;7364;50.870;4.722;2023-07-20T02:05:51;17.60;99.90
14555;DHT22;7364;50.870;4.722;2023-07-20T02:08:18;17.50;99.90
14555;DHT22;7364;50.870;4.722;2023-07-20T02:10:46;17.50;99.90
14555;DHT22;7364;50.870;4.722;2023-07-20T02:13:14;17.40;99.90
14555;DHT22;7364;50.870;4.722;2023-07-20T02:15:41;17.50;99.90
14555;DHT22;7364;50.870;4.722;2023-07-20T02:18:09;17.50;99.90
14555;DHT22;7364;50.870;4.722;2023-07-20T02:20:36;17.50;99.90
14555;DHT22;7364;50.870;4.722;2023-07-20T02:23:05;17.40;99.90
14555;DHT22;7364;50.870;4.722;2023-07-20T02:25:34;17.40;99.90
14555;DHT22;7364;50.870;4.722;2023-07-20T02:28:03;17.40;99.90
14555;DHT22;7364;50.870;4.722;2023-07-20T02:30:30;17.30;99.90
14555;DHT22;7364;50.870;4.722;2023-07-20T02:32:58;17.30;99.90
14555;DHT22;7364;50.870;4.722;2023-07-20T02:35:25;17.30;99.90
14555;DHT22;7364;50.870;4.722;2023-07-20T02:37:52;17.30;99.90
14555;DHT22;7364;50.870;4.722;2023-07-20T02:40:22;17.20;99.90
14555;DHT22;7364;50.870;4.722;2023-07-20T02:42:49;17.20;99.90
14555;DHT22;7364;50.870;4.722;2023-07-20T02:45:17;17.10;99.90
14555;DHT22;7364;50.870;4.722;2023-07-20T02:47:44;17.10;99.90
14555;DHT22;7364;50.870;4.722;2023-07-20T02:50:12;17.10;99.90
14555;DHT22;7364;50.870;4.722;2023-07-20T02:52:40;17.20;99.90
14555;DHT22;7364;50.870;4.722;2023-07-20T02:55:08;17.20;99.90
14555;DHT22;7364;50.870;4.722;2023-07-20T02:57:36;17.20;99.90
14555;DHT22;7364;50.870;4.722;2023-07-20T03:00:06;17.20;99.90
14555;DHT22;7364;50.870;4.722;2023-07-20T03:02:33;17.10;99.90
14555;DHT22;7364;50.870;4.722;2023-07-20T03:05:01;17.00;99.90
14555;DHT22;7364;50.870;4.722;2023-07-20T03:07:32;17.00;99.90
14555;DHT22;7364;50.870;4.722;2023-07-20T03:09:59;17.00;99.90
14555;DHT22;7364;50.870;4.722;2023-07-20T03:12:26;17.00;99.90
14555;DHT22;7364;50.870;4.722;2023-07-20T03:14:55;16.90;99.90
14555;DHT22;7364;50.870;4.722;2023-07-20T03:17:22;16.80;99.90
14555;DHT22;7364;50.870;4.722;2023-07-20T03:19:50;16.80;99.90
14555;DHT22;7364;50.870;4.722;2023-07-20T03:22:17;16.80;99.90
14555;DHT22;7364;50.870;4.722;2023-07-20T03:24:44;16.90;99.90
14555;DHT22;7364;50.870;4.722;2023-07-20T03:27:12;16.90;99.90
14555;DHT22;7364;50.870;4.722;2023-07-20T03:29:39;17.00;99.90
14555;DHT22;7364;50.870;4.722;2023-07-20T03:32:08;17.00;99.90
14555;DHT22;7364;50.870;4.722;2023-07-20T03:34:36;17.10;99.90
14555;DHT22;7364;50.870;4.722;2023-07-20T03:37:04;17.00;99.90
14555;DHT22;7364;50.870;4.722;2023-07-20T03:39:32;17.00;99.90
14555;DHT22;7364;50.870;4.722;2023-07-20T03:41:59;17.00;99.90
14555;DHT22;7364;50.870;4.722;2023-07-20T03:44:27;17.00;99.90
14555;DHT22;7364;50.870;4.722;2023-07-20T03:46:55;17.00;99.90
14555;DHT22;7364;50.870;4.722;2023-07-20T03:49:23;17.00;99.90
14555;DHT22;7364;50.870;4.722;2023-07-20T03:51:51;17.00;99.90
14555;DHT22;7364;50.870;4.722;2023-07-20T03:54:19;17.10;99.90
14555;DHT22;7364;50.870;4.722;2023-07-20T03:56:47;17.00;99.90
14555;DHT22;7364;50.870;4.722;2023-07-20T03:59:15;16.80;99.90
14555;DHT22;7364;50.870;4.722;2023-07-20T04:01:42;16.70;99.90
14555;DHT22;7364;50.870;4.722;2023-07-20T04:04:10;16.70;99.90
14555;DHT22;7364;50.870;4.722;2023-07-20T04:06:39;16.60;99.90
14555;DHT22;7364;50.870;4.722;2023-07-20T04:09:06;16.70;99.90
14555;DHT22;7364;50.870;4.722;2023-07-20T04:11:34;16.80;99.90
14555;DHT22;7364;50.870;4.722;2023-07-20T04:14:01;16.90;99.90
14555;DHT22;7364;50.870;4.722;2023-07-20T04:16:29;17.00;99.90
14555;DHT22;7364;50.870;4.722;2023-07-20T04:18:56;17.10;99.90
14555;DHT22;7364;50.870;4.722;2023-07-20T04:21:25;17.10;99.90
14555;DHT22;7364;50.870;4.722;2023-07-20T04:23:54;17.20;99.90
14555;DHT22;7364;50.870;4.722;2023-07-20T04:26:21;17.40;99.90
14555;DHT22;7364;50.870;4.722;2023-07-20T04:28:49;17.60;99.90
14555;DHT22;7364;50.870;4.722;2023-07-20T04:31:17;17.70;99.90
14555;DHT22;7364;50.870;4.722;2023-07-20T04:33:44;17.70;99.90
14555;DHT22;7364;50.870;4.722;2023-07-20T04:36:12;17.70;99.90
14555;DHT22;7364;50.870;4.722;2023-07-20T04:38:42;17.60;99.90
14555;DHT22;7364;50.870;4.722;2023-07-20T04:41:11;17.70;99.90
14555;DHT22;7364;50.870;4.722;2023-07-20T04:43:41;17.80;99.90
14555;DHT22;7364;50.870;4.722;2023-07-20T04:46:09;17.80;99.90
14555;DHT22;7364;50.870;4.722;2023-07-20T04:48:36;17.90;99.90
14555;DHT22;7364;50.870;4.722;2023-07-20T04:51:04;18.00;99.90
14555;DHT22;7364;50.870;4.722;2023-07-20T04:53:31;17.90;99.90
14555;DHT22;7364;50.870;4.722;2023-07-20T04:55:58;17.80;99.90
14555;DHT22;7364;50.870;4.722;2023-07-20T04:58:27;17.80;99.90
14555;DHT22;7364;50.870;4.722;2023-07-20T05:00:55;17.70;99.90
14555;DHT22;7364;50.870;4.722;2023-07-20T05:03:23;17.70;99.90
14555;DHT22;7364;50.870;4.722;2023-07-20T05:05:50;17.80;99.90
14555;DHT22;7364;50.870;4.722;2023-07-20T05:08:17;17.80;99.90
14555;DHT22;7364;50.870;4.722;2023-07-20T05:10:45;17.90;99.90
14555;DHT22;7364;50.870;4.722;2023-07-20T05:13:12;18.00;99.90
14555;DHT22;7364;50.870;4.722;2023-07-20T05:15:41;18.10;99.90
14555;DHT22;7364;50.870;4.722;2023-07-20T05:18:08;18.10;99.90
14555;DHT22;7364;50.870;4.722;2023-07-20T05:20:35;18.00;99.90
14555;DHT22;7364;50.870;4.722;2023-07-20T05:23:03;18.10;99.90
14555;DHT22;7364;50.870;4.722;2023-07-20T05:25:31;18.30;99.90
14555;DHT22;7364;50.870;4.722;2023-07-20T05:27:58;18.30;99.90
14555;DHT22;7364;50.870;4.722;2023-07-20T05:30:25;18.40;99.90
14555;DHT22;7364;50.870;4.722;2023-07-20T05:32:56;18.40;99.90
14555;DHT22;7364;50.870;4.722;2023-07-20T05:35:23;18.50;99.90
14555;DHT22;7364;50.870;4.722;2023-07-20T05:37:51;18.30;99.90
14555;DHT22;7364;50.870;4.722;2023-07-20T05:40:18;18.20;99.90
14555;DHT22;7364;50.870;4.722;2023-07-20T05:42:47;18.00;99.90
14555;DHT22;7364;50.870;4.722;2023-07-20T05:45:15;17.80;99.90
14555;DHT22;7364;50.870;4.722;2023-07-20T05:47:43;18.00;99.90
14555;DHT22;7364;50.870;4.722;2023-07-20T05:50:11;18.10;99.90
14555;DHT22;7364;50.870;4.722;2023-07-20T05:52:39;18.10;99.90
14555;DHT22;7364;50.870;4.722;2023-07-20T05:55:07;18.10;99.90
14555;DHT22;7364;50.870;4.722;2023-07-20T05:57:35;18.20;99.90
14555;DHT22;7364;50.870;4.722;2023-07-20T06:00:07;18.20;99.90
14555;DHT22;7364;50.870;4.722;2023-07-20T06:02:34;18.40;99.90
14555;DHT22;7364;50.870;4.722;2023-07-20T06:05:02;18.50;99.90
14555;DHT22;7364;50.870;4.722;2023-07-20T06:07:30;18.50;99.90
14555;DHT22;7364;50.870;4.722;2023-07-20T06:09:58;18.40;99.90
14555;DHT22;7364;50.870;4.722;2023-07-20T06:12:25;18.20;99.90
14555;DHT22;7364;50.870;4.722;2023-07-20T06:14:53;18.20;99.90
14555;DHT22;7364;50.870;4.722;2023-07-20T06:17:20;18.40;99.90
14555;DHT22;7364;50.870;4.722;2023-07-20T06:19:48;18.50;99.90
14555;DHT22;7364;50.870;4.722;2023-07-20T06:22:15;18.70;99.90
14555;DHT22;7364;50.870;4.722;2023-07-20T06:24:44;18.70;99.90
14555;DHT22;7364;50.870;4.722;2023-07-20T06:27:11;18.80;99.90
14555;DHT22;7364;50.870;4.722;2023-07-20T06:29:39;18.50;99.90
14555;DHT22;7364;50.870;4.722;2023-07-20T06:32:07;18.60;99.90
14555;DHT22;7364;50.870;4.722;2023-07-20T06:34:35;18.50;99.90
14555;DHT22;7364;50.870;4.722;2023-07-20T06:37:04;18.40;99.90
14555;DHT22;7364;50.870;4.722;2023-07-20T06:39:31;18.50;99.90
14555;DHT22;7364;50.870;4.722;2023-07-20T06:42:00;18.80;99.90
14555;DHT22;7364;50.870;4.722;2023-07-20T06:44:27;19.20;99.90
14555;DHT22;7364;50.870;4.722;2023-07-20T06:46:55;19.50;99.90
14555;DHT22;7364;50.870;4.722;2023-07-20T06:49:26;19.80;99.90
14555;DHT22;7364;50.870;4.722;2023-07-20T06:51:54;20.10;99.90
14555;DHT22;7364;50.870;4.722;2023-07-20T06:54:21;20.40;99.90
14555;DHT22;7364;50.870;4.722;2023-07-20T06:56:49;20.60;99.90
14555;DHT22;7364;50.870;4.722;2023-07-20T06:59:18;20.80;99.90
14555;DHT22;7364;50.870;4.722;2023-07-20T07:01:46;21.00;99.90
14555;DHT22;7364;50.870;4.722;2023-07-20T07:04:14;21.30;99.90
14555;DHT22;7364;50.870;4.722;2023-07-20T07:06:41;21.40;99.90
14555;DHT22;7364;50.870;4.722;2023-07-20T07:09:08;21.50;99.90
14555;DHT22;7364;50.870;4.722;2023-07-20T07:11:36;21.60;99.90
14555;DHT22;7364;50.870;4.722;2023-07-20T07:14:03;21.70;99.90
14555;DHT22;7364;50.870;4.722;2023-07-20T07:16:32;21.70;99.90
14555;DHT22;7364;50.870;4.722;2023-07-20T07:18:59;21.80;99.90
14555;DHT22;7364;50.870;4.722;2023-07-20T07:21:27;21.80;99.90
14555;DHT22;7364;50.870;4.722;2023-07-20T07:23:54;21.80;99.90
14555;DHT22;7364;50.870;4.722;2023-07-20T07:26:23;21.90;99.90
14555;DHT22;7364;50.870;4.722;2023-07-20T07:28:50;22.00;99.90
14555;DHT22;7364;50.870;4.722;2023-07-20T07:31:18;21.90;99.90
14555;DHT22;7364;50.870;4.722;2023-07-20T07:33:47;22.00;99.90
14555;DHT22;7364;50.870;4.722;2023-07-20T07:36:14;22.10;99.90
14555;DHT22;7364;50.870;4.722;2023-07-20T07:38:41;22.30;99.90
14555;DHT22;7364;50.870;4.722;2023-07-20T07:41:09;22.60;99.90
14555;DHT22;7364;50.870;4.722;2023-07-20T07:43:37;22.80;99.90
14555;DHT22;7364;50.870;4.722;2023-07-20T07:46:04;22.70;99.90
14555;DHT22;7364;50.870;4.722;2023-07-20T07:48:32;22.80;99.90
14555;DHT22;7364;50.870;4.722;2023-07-20T07:51:00;22.70;99.90
14555;DHT22;7364;50.870;4.722;2023-07-20T07:53:28;22.60;99.90
14555;DHT22;7364;50.870;4.722;2023-07-20T07:55:55;22.90;99.90
14555;DHT22;7364;50.870;4.722;2023-07-20T08:01:14;23.20;99.90
14555;DHT22;7364;50.870;4.722;2023-07-20T08:03:41;23.10;99.90
14555;DHT22;7364;50.870;4.722;2023-07-20T08:06:10;23.10;99.90
14555;DHT22;7364;50.870;4.722;2023-07-20T08:08:37;22.90;99.90
14555;DHT22;7364;50.870;4.722;2023-07-20T08:11:05;22.70;99.90
14555;DHT22;7364;50.870;4.722;2023-07-20T08:13:32;22.70;99.90
14555;DHT22;7364;50.870;4.722;2023-07-20T08:16:00;22.90;99.90
14555;DHT22;7364;50.870;4.722;2023-07-20T08:18:28;23.00;99.90
14555;DHT22;7364;50.870;4.722;2023-07-20T08:20:55;23.10;99.90
14555;DHT22;7364;50.870;4.722;2023-07-20T08:23:24;23.20;99.90
14555;DHT22;7364;50.870;4.722;2023-07-20T08:25:53;23.40;99.90
14555;DHT22;7364;50.870;4.722;2023-07-20T08:28:20;23.50;99.90
14555;DHT22;7364;50.870;4.722;2023-07-20T08:30:49;23.80;99.90
14555;DHT22;7364;50.870;4.722;2023-07-20T08:33:17;23.00;99.90
14555;DHT22;7364;50.870;4.722;2023-07-20T08:35:46;23.20;99.90
14555;DHT22;7364;50.870;4.722;2023-07-20T08:38:13;23.40;99.90
14555;DHT22;7364;50.870;4.722;2023-07-20T08:40:44;23.70;99.90
14555;DHT22;7364;50.870;4.722;2023-07-20T08:43:12;23.80;99.90
14555;DHT22;7364;50.870;4.722;2023-07-20T08:45:40;23.90;99.90
14555;DHT22;7364;50.870;4.722;2023-07-20T08:48:08;24.00;99.90
14555;DHT22;7364;50.870;4.722;2023-07-20T08:50:36;24.40;99.90
14555;DHT22;7364;50.870;4.722;2023-07-20T08:53:04;24.70;99.90
14555;DHT22;7364;50.870;4.722;2023-07-20T08:55:31;24.90;99.70
14555;DHT22;7364;50.870;4.722;2023-07-20T08:58:00;24.90;99.60
14555;DHT22;7364;50.870;4.722;2023-07-20T09:00:30;24.90;99.90
14555;DHT22;7364;50.870;4.722;2023-07-20T09:02:57;24.90;99.10
14555;DHT22;7364;50.870;4.722;2023-07-20T09:05:26;24.60;99.90
14555;DHT22;7364;50.870;4.722;2023-07-20T09:07:53;24.60;99.90
14555;DHT22;7364;50.870;4.722;2023-07-20T09:10:21;24.40;99.90
14555;DHT22;7364;50.870;4.722;2023-07-20T09:12:48;24.20;99.90
14555;DHT22;7364;50.870;4.722;2023-07-20T09:15:18;24.50;99.00
14555;DHT22;7364;50.870;4.722;2023-07-20T09:17:46;24.60;99.60
14555;DHT22;7364;50.870;4.722;2023-07-20T09:20:15;24.40;99.00
14555;DHT22;7364;50.870;4.722;2023-07-20T09:22:43;24.10;99.90
14555;DHT22;7364;50.870;4.722;2023-07-20T09:25:12;24.40;99.90
14555;DHT22;7364;50.870;4.722;2023-07-20T09:27:43;24.60;98.80
14555;DHT22;7364;50.870;4.722;2023-07-20T09:30:11;24.70;99.30
14555;DHT22;7364;50.870;4.722;2023-07-20T09:32:44;25.10;98.20
14555;DHT22;7364;50.870;4.722;2023-07-20T09:35:14;25.30;97.70
14555;DHT22;7364;50.870;4.722;2023-07-20T09:37:48;25.30;97.10
14555;DHT22;7364;50.870;4.722;2023-07-20T09:40:18;24.90;97.10
14555;DHT22;7364;50.870;4.722;2023-07-20T09:42:46;24.50;97.80
14555;DHT22;7364;50.870;4.722;2023-07-20T09:45:17;24.20;97.10
14555;DHT22;7364;50.870;4.722;2023-07-20T09:47:49;23.60;97.60
14555;DHT22;7364;50.870;4.722;2023-07-20T09:50:19;23.80;98.20
14555;DHT22;7364;50.870;4.722;2023-07-20T09:52:47;24.00;97.70
14555;DHT22;7364;50.870;4.722;2023-07-20T09:55:15;24.50;98.20
14555;DHT22;7364;50.870;4.722;2023-07-20T09:57:44;24.90;96.10
14555;DHT22;7364;50.870;4.722;2023-07-20T10:00:19;25.10;96.10
14555;DHT22;7364;50.870;4.722;2023-07-20T10:02:51;24.80;97.10
14555;DHT22;7364;50.870;4.722;2023-07-20T10:05:19;24.90;97.00
14555;DHT22;7364;50.870;4.722;2023-07-20T10:07:48;24.70;95.30
14555;DHT22;7364;50.870;4.722;2023-07-20T10:10:17;24.10;94.20
14555;DHT22;7364;50.870;4.722;2023-07-20T10:12:46;23.80;95.50
14555;DHT22;7364;50.870;4.722;2023-07-20T10:15:18;23.50;96.50
14555;DHT22;7364;50.870;4.722;2023-07-20T10:17:57;23.50;96.80
14555;DHT22;7364;50.870;4.722;2023-07-20T10:20:25;23.40;97.60
14555;DHT22;7364;50.870;4.722;2023-07-20T10:22:54;23.50;96.60
14555;DHT22;7364;50.870;4.722;2023-07-20T10:25:23;24.10;96.00
14555;DHT22;7364;50.870;4.722;2023-07-20T10:27:51;24.70;94.50
14555;DHT22;7364;50.870;4.722;2023-07-20T10:30:18;24.70;95.90
14555;DHT22;7364;50.870;4.722;2023-07-20T10:32:48;24.80;95.70
14555;DHT22;7364;50.870;4.722;2023-07-20T10:35:17;25.50;94.60
14555;DHT22;7364;50.870;4.722;2023-07-20T10:37:52;25.90;91.70
14555;DHT22;7364;50.870;4.722;2023-07-20T10:40:31;26.40;91.00
14555;DHT22;7364;50.870;4.722;2023-07-20T10:43:04;26.30;91.90
14555;DHT22;7364;50.870;4.722;2023-07-20T10:45:52;26.70;90.20
14555;DHT22;7364;50.870;4.722;2023-07-20T10:48:22;26.70;91.00
14555;DHT22;7364;50.870;4.722;2023-07-20T10:51:08;26.80;90.30
14555;DHT22;7364;50.870;4.722;2023-07-20T10:53:36;27.50;89.90
14555;DHT22;7364;50.870;4.722;2023-07-20T10:56:07;27.70;87.30
14555;DHT22;7364;50.870;4.722;2023-07-20T10:58:35;28.10;84.90
14555;DHT22;7364;50.870;4.722;2023-07-20T11:01:03;28.00;85.60
14555;DHT22;7364;50.870;4.722;2023-07-20T11:03:36;28.20;82.10
14555;DHT22;7364;50.870;4.722;2023-07-20T11:06:29;28.50;82.80
14555;DHT22;7364;50.870;4.722;2023-07-20T11:09:04;28.10;83.10
14555;DHT22;7364;50.870;4.722;2023-07-20T11:11:34;28.70;80.60
14555;DHT22;7364;50.870;4.722;2023-07-20T11:14:02;29.20;78.60
14555;DHT22;7364;50.870;4.722;2023-07-20T11:16:40;28.30;77.50
14555;DHT22;7364;50.870;4.722;2023-07-20T11:19:17;27.60;84.40
14555;DHT22;7364;50.870;4.722;2023-07-20T11:21:46;27.10;84.60
14555;DHT22;7364;50.870;4.722;2023-07-20T11:24:13;26.70;83.90
14555;DHT22;7364;50.870;4.722;2023-07-20T11:26:44;25.90;85.70
14555;DHT22;7364;50.870;4.722;2023-07-20T11:29:12;25.60;90.30
14555;DHT22;7364;50.870;4.722;2023-07-20T11:31:41;25.80;90.30
14555;DHT22;7364;50.870;4.722;2023-07-20T11:34:11;25.70;90.20
14555;DHT22;7364;50.870;4.722;2023-07-20T11:36:41;25.80;89.30
14555;DHT22;7364;50.870;4.722;2023-07-20T11:39:10;26.00;89.70
14555;DHT22;7364;50.870;4.722;2023-07-20T11:41:38;26.10;88.90
14555;DHT22;7364;50.870;4.722;2023-07-20T11:44:06;26.30;87.50
14555;DHT22;7364;50.870;4.722;2023-07-20T11:46:33;25.90;88.20
14555;DHT22;7364;50.870;4.722;2023-07-20T11:49:02;25.90;89.30
14555;DHT22;7364;50.870;4.722;2023-07-20T11:51:30;25.90;89.00
14555;DHT22;7364;50.870;4.722;2023-07-20T11:54:00;25.30;90.50
14555;DHT22;7364;50.870;4.722;2023-07-20T11:56:28;25.40;90.90
14555;DHT22;7364;50.870;4.722;2023-07-20T11:58:57;25.40;90.80
14555;DHT22;7364;50.870;4.722;2023-07-20T12:01:27;25.70;90.50
14555;DHT22;7364;50.870;4.722;2023-07-20T12:03:55;25.80;89.60
14555;DHT22;7364;50.870;4.722;2023-07-20T12:06:24;26.20;88.80
14555;DHT22;7364;50.870;4.722;2023-07-20T12:08:55;26.80;86.50
14555;DHT22;7364;50.870;4.722;2023-07-20T12:11:35;27.30;85.90
14555;DHT22;7364;50.870;4.722;2023-07-20T12:14:03;28.30;84.80
14555;DHT22;7364;50.870;4.722;2023-07-20T12:16:31;29.70;78.80
14555;DHT22;7364;50.870;4.722;2023-07-20T12:19:02;29.70;78.00
14555;DHT22;7364;50.870;4.722;2023-07-20T12:21:30;29.50;77.80
14555;DHT22;7364;50.870;4.722;2023-07-20T12:23:58;28.70;78.40
14555;DHT22;7364;50.870;4.722;2023-07-20T12:26:26;28.60;78.50
14555;DHT22;7364;50.870;4.722;2023-07-20T12:28:54;28.70;76.60
14555;DHT22;7364;50.870;4.722;2023-07-20T12:31:22;28.90;78.20
14555;DHT22;7364;50.870;4.722;2023-07-20T12:33:50;28.90;77.80
14555;DHT22;7364;50.870;4.722;2023-07-20T12:36:19;28.40;79.00
14555;DHT22;7364;50.870;4.722;2023-07-20T12:38:46;28.00;78.90
14555;DHT22;7364;50.870;4.722;2023-07-20T12:41:14;28.00;79.00
14555;DHT22;7364;50.870;4.722;2023-07-20T12:43:41;28.10;78.40
14555;DHT22;7364;50.870;4.722;2023-07-20T12:46:11;28.10;74.60
14555;DHT22;7364;50.870;4.722;2023-07-20T12:48:39;28.80;77.70
14555;DHT22;7364;50.870;4.722;2023-07-20T12:51:14;29.10;76.40
14555;DHT22;7364;50.870;4.722;2023-07-20T12:53:41;28.40;76.80
14555;DHT22;7364;50.870;4.722;2023-07-20T12:56:09;28.50;78.00
14555;DHT22;7364;50.870;4.722;2023-07-20T12:58:36;27.70;76.10
14555;DHT22;7364;50.870;4.722;2023-07-20T13:01:06;27.50;80.00
14555;DHT22;7364;50.870;4.722;2023-07-20T13:03:37;27.80;78.00
14555;DHT22;7364;50.870;4.722;2023-07-20T13:06:06;28.90;73.60
14555;DHT22;7364;50.870;4.722;2023-07-20T13:08:33;29.80;71.50
14555;DHT22;7364;50.870;4.722;2023-07-20T13:11:01;30.00;72.60
14555;DHT22;7364;50.870;4.722;2023-07-20T13:13:28;30.30;70.80
14555;DHT22;7364;50.870;4.722;2023-07-20T13:15:56;30.80;72.40
14555;DHT22;7364;50.870;4.722;2023-07-20T13:18:23;31.50;67.00
14555;DHT22;7364;50.870;4.722;2023-07-20T13:20:52;32.50;66.00
14555;DHT22;7364;50.870;4.722;2023-07-20T13:23:19;33.40;63.90
14555;DHT22;7364;50.870;4.722;2023-07-20T13:25:47;33.60;60.00
14555;DHT22;7364;50.870;4.722;2023-07-20T13:28:14;33.00;62.10
14555;DHT22;7364;50.870;4.722;2023-07-20T13:30:41;31.40;59.20
14555;DHT22;7364;50.870;4.722;2023-07-20T13:33:10;28.90;70.30
14555;DHT22;7364;50.870;4.722;2023-07-20T13:35:38;28.40;67.50
14555;DHT22;7364;50.870;4.722;2023-07-20T13:38:07;28.40;71.10
14555;DHT22;7364;50.870;4.722;2023-07-20T13:40:34;28.40;73.40
14555;DHT22;7364;50.870;4.722;2023-07-20T13:43:02;28.60;69.50
14555;DHT22;7364;50.870;4.722;2023-07-20T13:45:30;29.00;67.60
14555;DHT22;7364;50.870;4.722;2023-07-20T13:47:57;28.90;68.90
14555;DHT22;7364;50.870;4.722;2023-07-20T13:50:25;28.70;71.10
14555;DHT22;7364;50.870;4.722;2023-07-20T13:52:54;28.30;72.70
14555;DHT22;7364;50.870;4.722;2023-07-20T13:55:23;28.10;71.40
14555;DHT22;7364;50.870;4.722;2023-07-20T13:57:50;27.00;71.10
14555;DHT22;7364;50.870;4.722;2023-07-20T14:00:17;26.70;72.00
14555;DHT22;7364;50.870;4.722;2023-07-20T14:02:46;26.30;73.40
14555;DHT22;7364;50.870;4.722;2023-07-20T14:05:13;26.10;75.90
14555;DHT22;7364;50.870;4.722;2023-07-20T14:07:42;25.70;75.30
14555;DHT22;7364;50.870;4.722;2023-07-20T14:10:09;25.30;77.20
14555;DHT22;7364;50.870;4.722;2023-07-20T14:12:38;24.90;77.80
14555;DHT22;7364;50.870;4.722;2023-07-20T14:15:06;24.50;78.10
14555;DHT22;7364;50.870;4.722;2023-07-20T14:17:33;24.20;79.40
14555;DHT22;7364;50.870;4.722;2023-07-20T14:20:00;24.10;79.60
14555;DHT22;7364;50.870;4.722;2023-07-20T14:22:31;24.30;79.60
14555;DHT22;7364;50.870;4.722;2023-07-20T14:24:58;24.40;79.70
14555;DHT22;7364;50.870;4.722;2023-07-20T14:27:25;24.70;81.30
14555;DHT22;7364;50.870;4.722;2023-07-20T14:29:54;25.00;80.50
14555;DHT22;7364;50.870;4.722;2023-07-20T14:32:21;25.30;79.10
14555;DHT22;7364;50.870;4.722;2023-07-20T14:34:49;25.10;79.10
14555;DHT22;7364;50.870;4.722;2023-07-20T14:37:16;25.50;79.70
14555;DHT22;7364;50.870;4.722;2023-07-20T14:39:44;25.90;80.00
14555;DHT22;7364;50.870;4.722;2023-07-20T14:42:11;26.00;78.20
14555;DHT22;7364;50.870;4.722;2023-07-20T14:44:38;25.80;77.90
14555;DHT22;7364;50.870;4.722;2023-07-20T14:47:07;25.60;81.50
14555;DHT22;7364;50.870;4.722;2023-07-20T14:49:35;25.50;80.50
14555;DHT22;7364;50.870;4.722;2023-07-20T14:52:02;25.60;81.90
14555;DHT22;7364;50.870;4.722;2023-07-20T14:54:30;26.00;79.70
14555;DHT22;7364;50.870;4.722;2023-07-20T14:56:57;26.10;81.00
14555;DHT22;7364;50.870;4.722;2023-07-20T14:59:24;26.40;81.30
14555;DHT22;7364;50.870;4.722;2023-07-20T15:01:52;26.70;81.60
14555;DHT22;7364;50.870;4.722;2023-07-20T15:04:21;28.70;77.60
14555;DHT22;7364;50.870;4.722;2023-07-20T15:06:48;31.40;69.70
14555;DHT22;7364;50.870;4.722;2023-07-20T15:09:15;32.30;63.20
14555;DHT22;7364;50.870;4.722;2023-07-20T15:11:43;32.10;64.40
14555;DHT22;7364;50.870;4.722;2023-07-20T15:14:12;33.00;63.30
14555;DHT22;7364;50.870;4.722;2023-07-20T15:16:46;33.90;62.50
14555;DHT22;7364;50.870;4.722;2023-07-20T15:19:16;35.20;58.70
14555;DHT22;7364;50.870;4.722;2023-07-20T15:21:45;35.20;57.90
14555;DHT22;7364;50.870;4.722;2023-07-20T15:24:14;35.60;56.60
14555;DHT22;7364;50.870;4.722;2023-07-20T15:26:45;35.00;56.70
14555;DHT22;7364;50.870;4.722;2023-07-20T15:29:14;33.20;58.80
14555;DHT22;7364;50.870;4.722;2023-07-20T15:31:41;33.10;59.60
14555;DHT22;7364;50.870;4.722;2023-07-20T15:34:08;33.30;57.20
14555;DHT22;7364;50.870;4.722;2023-07-20T15:36:39;33.40;57.80
14555;DHT22;7364;50.870;4.722;2023-07-20T15:39:08;31.40;61.80
14555;DHT22;7364;50.870;4.722;2023-07-20T15:41:36;29.80;65.90
14555;DHT22;7364;50.870;4.722;2023-07-20T15:44:03;30.00;65.70
14555;DHT22;7364;50.870;4.722;2023-07-20T15:46:54;29.60;67.10
14555;DHT22;7364;50.870;4.722;2023-07-20T15:49:22;30.00;66.80
14555;DHT22;7364;50.870;4.722;2023-07-20T15:51:50;29.90;65.70
14555;DHT22;7364;50.870;4.722;2023-07-20T15:54:18;29.40;64.70
14555;DHT22;7364;50.870;4.722;2023-07-20T15:56:46;28.60;69.10